Time;durP1;ratioP1;P1;durP2;ratioP2;P2;SDS_P1;SDS_P2;PMS_P1;PMS_P2;Temp;Humidity;BMP_temperature;BMP_pressure;BME280_temperature;BME280_humidity;BME280_pressure;Samples;Min_cycle;Max_cycle;Signal;HPM_P1;HPM_P2
2024/03/02 00:02:06;;;;;;;3.20;1.38;;;8.90;99.90;;;;;;8456008;28;20048;-77
2024/03/02 00:06:08;;;;;;;4.03;1.60;;;8.90;99.90;;;;;;8451157;28;20052;-76
2024/03/02 00:10:12;;;;;;;4.70;1.70;;;9.00;99.90;;;;;;8457130;28;20051;-76
2024/03/02 00:14:14;;;;;;;3.92;1.50;;;9.00;99.90;;;;;;8450113;28;20061;-77
2024/03/02 00:18:21;;;;;;;4.55;1.50;;;9.00;99.90;;;;;;8450594;27;20055;-76
2024/03/02 00:22:23;;;;;;;4.50;1.30;;;9.00;99.90;;;;;;8455772;28;20043;-76
2024/03/02 00:26:25;;;;;;;4.85;1.60;;;9.00;99.90;;;;;;8453510;28;20414;-76
2024/03/02 00:30:46;;;;;;;3.58;1.17;;;9.10;99.90;;;;;;8457179;28;20043;-76
2024/03/02 00:34:48;;;;;;;3.00;1.30;;;9.10;99.90;;;;;;8453731;28;20082;-76
2024/03/02 00:38:51;;;;;;;2.10;1.00;;;9.00;99.90;;;;;;8458860;27;20100;-76
2024/03/02 00:42:52;;;;;;;0.95;0.65;;;8.90;99.90;;;;;;8456561;28;20115;-76
2024/03/02 00:46:54;;;;;;;1.38;0.60;;;8.70;99.90;;;;;;8455813;28;20082;-76
2024/03/02 00:50:56;;;;;;;1.38;0.63;;;8.60;99.90;;;;;;8455056;28;20052;-76
2024/03/02 00:55:36;;;;;;;2.70;0.90;;;8.50;99.90;;;;;;8451110;28;20040;-76
2024/03/02 00:59:38;;;;;;;2.00;0.70;;;8.40;99.90;;;;;;8492217;27;20047;-76
2024/03/02 01:03:41;;;;;;;0.70;0.50;;;8.30;99.90;;;;;;8457128;28;20054;-76
2024/03/02 01:07:43;;;;;;;0.85;0.60;;;8.20;99.90;;;;;;8462118;28;20051;-76
2024/03/02 01:11:45;;;;;;;0.80;0.60;;;8.10;99.90;;;;;;8462451;27;20044;-76
2024/03/02 01:15:46;;;;;;;0.98;0.57;;;8.00;99.90;;;;;;8457514;28;20035;-77
2024/03/02 01:19:48;;;;;;;1.92;0.80;;;8.00;99.90;;;;;;8457974;28;20035;-76
2024/03/02 01:23:50;;;;;;;1.23;0.65;;;7.90;99.90;;;;;;8464569;27;20051;-76
2024/03/02 01:27:52;;;;;;;0.75;0.52;;;7.90;99.90;;;;;;8459587;28;20055;-77
2024/03/02 01:31:54;;;;;;;1.48;0.77;;;7.80;99.90;;;;;;8461948;27;20175;-76
2024/03/02 01:35:55;;;;;;;1.92;0.80;;;7.90;99.90;;;;;;8460383;27;20479;-76
2024/03/02 01:39:58;;;;;;;2.28;0.70;;;7.90;99.90;;;;;;8459553;28;20799;-76
2024/03/02 01:43:59;;;;;;;1.55;0.80;;;7.90;99.90;;;;;;8462775;28;20043;-77
2024/03/02 01:48:02;;;;;;;1.65;0.70;;;7.90;99.90;;;;;;8457985;28;20047;-76
2024/03/02 01:52:04;;;;;;;0.77;0.70;;;7.80;99.90;;;;;;8460132;27;20050;-76
2024/03/02 01:56:06;;;;;;;2.50;0.80;;;7.80;99.90;;;;;;8461219;28;20048;-76
2024/03/02 02:00:09;;;;;;;1.02;0.60;;;7.80;99.90;;;;;;8458099;28;20088;-76
2024/03/02 02:04:11;;;;;;;2.10;0.63;;;7.70;99.90;;;;;;8460619;28;20058;-76
2024/03/02 02:08:13;;;;;;;1.75;0.68;;;7.70;99.90;;;;;;8457616;28;20043;-76
2024/03/02 02:12:15;;;;;;;1.13;0.68;;;7.70;99.90;;;;;;8459357;27;20040;-77
2024/03/02 02:16:17;;;;;;;1.55;0.68;;;7.60;99.90;;;;;;8451891;28;20040;-76
2024/03/02 02:20:19;;;;;;;2.63;0.98;;;7.60;99.90;;;;;;8456984;27;20047;-77
2024/03/02 02:24:21;;;;;;;0.90;0.50;;;7.60;99.90;;;;;;8459358;28;20052;-76
2024/03/02 02:28:23;;;;;;;0.68;0.50;;;7.50;99.90;;;;;;8458307;27;20127;-76
2024/03/02 02:32:24;;;;;;;0.82;0.60;;;7.40;99.90;;;;;;8458723;28;20040;-76
2024/03/02 02:36:26;;;;;;;1.35;0.60;;;7.40;99.90;;;;;;8460810;28;20036;-76
2024/03/02 02:40:30;;;;;;;1.33;0.80;;;7.40;99.90;;;;;;8458047;27;20139;-76
2024/03/02 02:44:32;;;;;;;1.63;0.75;;;7.40;99.90;;;;;;8457911;27;20051;-76
2024/03/02 02:48:34;;;;;;;1.05;0.60;;;7.30;99.90;;;;;;8459517;28;20101;-76
2024/03/02 02:52:39;;;;;;;1.10;0.60;;;7.30;99.90;;;;;;8457364;28;20044;-76
2024/03/02 02:56:40;;;;;;;1.50;0.50;;;7.30;99.90;;;;;;8461323;27;20105;-76
2024/03/02 03:00:42;;;;;;;2.65;0.70;;;7.20;99.90;;;;;;8457228;27;20043;-77
2024/03/02 03:04:44;;;;;;;0.93;0.52;;;7.20;99.90;;;;;;8459060;28;20478;-76
2024/03/02 03:08:46;;;;;;;2.30;0.70;;;7.20;99.90;;;;;;8457005;27;20062;-76
2024/03/02 03:12:49;;;;;;;0.85;0.50;;;7.20;99.90;;;;;;8455030;28;20475;-76
2024/03/02 03:16:50;;;;;;;0.93;0.57;;;7.30;99.90;;;;;;8448978;28;20510;-76
2024/03/02 03:20:52;;;;;;;1.15;0.50;;;7.20;99.90;;;;;;8454924;28;20112;-77
2024/03/02 03:24:54;;;;;;;1.00;0.60;;;7.30;99.90;;;;;;8458829;27;20051;-76
2024/03/02 03:28:56;;;;;;;0.60;0.55;;;7.30;99.90;;;;;;8457160;28;20135;-76
2024/03/02 03:32:58;;;;;;;1.15;0.60;;;7.30;99.90;;;;;;8456869;28;20097;-76
2024/03/02 03:37:00;;;;;;;1.17;0.70;;;7.30;99.90;;;;;;8458727;28;20047;-77
2024/03/02 03:41:02;;;;;;;1.63;0.60;;;7.30;99.90;;;;;;8457381;28;20058;-76
2024/03/02 03:45:04;;;;;;;1.45;0.70;;;7.30;99.90;;;;;;8458112;28;20051;-76
2024/03/02 03:49:06;;;;;;;1.00;0.60;;;7.30;99.90;;;;;;8457336;28;20051;-76
2024/03/02 03:53:07;;;;;;;2.33;0.70;;;7.30;99.90;;;;;;8455902;28;20047;-76
2024/03/02 03:57:09;;;;;;;2.28;0.70;;;7.40;99.90;;;;;;8458776;28;20449;-76
2024/03/02 04:01:11;;;;;;;1.40;0.57;;;7.40;99.90;;;;;;8456216;27;20503;-76
2024/03/02 04:05:13;;;;;;;0.80;0.52;;;7.30;99.90;;;;;;8458115;28;20058;-76
2024/03/02 04:09:15;;;;;;;1.77;0.68;;;7.40;99.90;;;;;;8456503;28;20600;-76
2024/03/02 04:13:17;;;;;;;2.38;0.60;;;7.40;99.90;;;;;;8454958;28;20487;-76
2024/03/02 04:17:18;;;;;;;0.88;0.60;;;7.40;99.90;;;;;;8451268;28;20051;-76
2024/03/02 04:21:20;;;;;;;1.75;0.80;;;7.40;99.90;;;;;;8456358;27;20043;-76
2024/03/02 04:25:22;;;;;;;2.17;0.88;;;7.40;99.90;;;;;;8456224;28;20059;-76
2024/03/02 04:29:24;;;;;;;1.10;0.70;;;7.40;99.90;;;;;;8477983;27;20059;-76
2024/03/02 04:33:25;;;;;;;1.13;0.63;;;7.40;99.90;;;;;;8454218;28;20422;-76
2024/03/02 04:37:27;;;;;;;1.67;0.70;;;7.40;99.90;;;;;;8458545;28;20043;-77
2024/03/02 04:41:29;;;;;;;1.27;0.60;;;7.40;99.90;;;;;;8457766;28;20047;-76
2024/03/02 04:45:31;;;;;;;1.35;0.70;;;7.30;99.90;;;;;;8453580;28;20060;-76
2024/03/02 04:59:26;;;;;;;2.33;0.60;;;7.20;99.90;;;;;;8422377;28;20050;-76
2024/03/02 05:03:28;;;;;;;2.25;0.60;;;7.20;99.90;;;;;;8453478;28;20044;-76
2024/03/02 05:07:29;;;;;;;1.00;0.57;;;7.20;99.90;;;;;;8455274;28;20047;-76
2024/03/02 05:15:40;;;;;;;;;;;7.20;99.90;;;;;;8444739;28;20044;-76
2024/03/02 05:19:42;;;;;;;0.93;0.50;;;7.20;99.90;;;;;;8452209;28;19924;-76
2024/03/02 05:23:44;;;;;;;1.70;0.80;;;7.20;99.90;;;;;;8454318;28;20052;-76
2024/03/02 05:27:46;;;;;;;2.20;0.65;;;7.20;99.90;;;;;;8455089;28;20051;-76
2024/03/02 05:31:49;;;;;;;1.52;0.60;;;7.20;99.90;;;;;;8454400;28;20052;-76
2024/03/02 05:35:51;;;;;;;2.72;0.70;;;7.10;99.90;;;;;;8455905;28;20042;-76
2024/03/02 05:39:53;;;;;;;1.90;0.80;;;7.10;99.90;;;;;;8454313;28;20418;-76
2024/03/02 05:43:55;;;;;;;1.80;0.60;;;7.00;99.90;;;;;;8452143;28;20418;-76
2024/03/02 05:47:57;;;;;;;2.22;0.55;;;7.10;99.90;;;;;;8453238;28;20136;-77
2024/03/02 05:51:59;;;;;;;1.42;0.50;;;7.00;99.90;;;;;;8443461;28;20043;-76
2024/03/02 05:56:01;;;;;;;0.93;0.50;;;7.10;99.90;;;;;;8461663;27;20434;-76
2024/03/02 06:00:08;;;;;;;1.02;0.65;;;7.10;99.90;;;;;;8454294;27;20043;-77
2024/03/02 06:04:13;;;;;;;1.50;0.70;;;7.10;99.90;;;;;;8445068;28;20047;-75
2024/03/02 06:08:15;;;;;;;1.17;0.60;;;7.10;99.90;;;;;;8455576;27;20117;-75
2024/03/02 06:12:17;;;;;;;2.65;0.73;;;7.10;99.90;;;;;;8445171;27;20093;-75
2024/03/02 06:16:19;;;;;;;2.47;0.60;;;7.10;99.90;;;;;;8446053;28;20040;-75
2024/03/02 06:20:21;;;;;;;1.58;0.80;;;7.10;99.90;;;;;;8453381;28;20040;-75
2024/03/02 06:24:57;;;;;;;1.20;0.50;;;7.10;99.90;;;;;;8448356;28;20052;-75
2024/03/02 06:28:59;;;;;;;2.42;0.73;;;7.10;99.90;;;;;;8451604;28;20487;-75
2024/03/02 06:33:01;;;;;;;1.38;0.60;;;7.10;99.90;;;;;;8438232;27;20048;-75
2024/03/02 06:37:03;;;;;;;0.88;0.57;;;7.10;99.90;;;;;;8453194;27;20048;-75
2024/03/02 06:41:05;;;;;;;2.13;0.60;;;7.10;99.90;;;;;;8457330;28;20040;-75
2024/03/02 06:45:07;;;;;;;1.67;0.70;;;7.10;99.90;;;;;;8448349;27;20044;-75
2024/03/02 06:49:10;;;;;;;2.22;0.60;;;7.10;99.90;;;;;;8442275;27;20406;-75
2024/03/02 06:53:12;;;;;;;2.50;0.82;;;7.10;99.90;;;;;;8450950;27;20058;-75
2024/03/02 06:57:14;;;;;;;2.05;0.80;;;7.10;99.90;;;;;;8493086;27;20571;-75
2024/03/02 07:01:15;;;;;;;2.30;0.68;;;7.20;99.90;;;;;;8451591;27;20042;-75
2024/03/02 07:05:17;;;;;;;0.95;0.50;;;7.30;99.90;;;;;;8450561;28;20051;-75
2024/03/02 07:09:22;;;;;;;2.40;0.60;;;7.30;99.90;;;;;;8455372;28;20563;-75
2024/03/02 07:13:24;;;;;;;0.77;0.60;;;7.40;99.90;;;;;;8460231;27;20043;-75
2024/03/02 07:17:26;;;;;;;2.20;0.85;;;7.50;99.90;;;;;;8454349;27;20500;-75
2024/03/02 07:21:28;;;;;;;1.88;0.65;;;7.50;99.90;;;;;;8457164;27;20040;-75
2024/03/02 07:25:30;;;;;;;2.42;0.70;;;7.60;99.90;;;;;;8451709;27;20055;-75
2024/03/02 07:29:34;;;;;;;2.45;0.65;;;7.60;99.90;;;;;;8456226;27;20047;-75
2024/03/02 07:34:01;;;;;;;1.77;0.80;;;7.70;99.90;;;;;;8452357;27;20051;-75
2024/03/02 07:38:04;;;;;;;3.15;0.90;;;7.70;99.90;;;;;;8453128;27;20047;-75
2024/03/02 07:42:06;;;;;;;1.90;0.80;;;7.70;99.90;;;;;;8456548;27;20445;-75
2024/03/02 07:46:08;;;;;;;2.97;0.90;;;7.70;99.90;;;;;;8451068;28;20066;-75
2024/03/02 07:50:10;;;;;;;1.33;0.73;;;7.60;99.90;;;;;;8445106;27;20114;-75
2024/03/02 07:54:11;;;;;;;1.95;0.55;;;7.60;99.90;;;;;;8452236;28;20054;-75
2024/03/02 07:58:14;;;;;;;3.00;0.90;;;7.50;99.90;;;;;;8457071;28;20054;-75
2024/03/02 08:02:16;;;;;;;2.40;0.70;;;7.40;99.90;;;;;;8443192;28;20470;-75
2024/03/02 08:22:27;;;;;;;1.73;0.80;;;7.30;99.90;;;;;;8453060;27;20366;-75
2024/03/02 08:26:31;;;;;;;1.20;0.60;;;7.30;99.90;;;;;;8454382;28;20075;-75
2024/03/02 08:30:33;;;;;;;2.58;0.75;;;7.40;99.90;;;;;;8455529;28;20241;-75
2024/03/02 08:34:37;;;;;;;1.77;0.60;;;7.60;99.90;;;;;;8446026;28;20407;-75
2024/03/02 08:38:49;;;;;;;1.90;0.73;;;7.70;99.90;;;;;;8443850;28;20113;-75
2024/03/02 08:42:52;;;;;;;1.80;0.70;;;7.90;99.90;;;;;;8453051;28;20081;-75
2024/03/02 08:46:53;;;;;;;2.17;0.70;;;8.10;99.90;;;;;;8455183;28;20481;-75
2024/03/02 08:50:55;;;;;;;4.38;0.88;;;8.20;99.90;;;;;;8448658;28;20051;-75
2024/03/02 08:54:57;;;;;;;2.97;0.90;;;8.40;99.90;;;;;;8452812;28;20465;-75
2024/03/02 08:58:59;;;;;;;1.98;0.70;;;8.60;99.90;;;;;;8453551;28;20046;-75
2024/03/02 09:03:01;;;;;;;3.20;0.80;;;8.70;99.90;;;;;;8458087;28;20138;-75
2024/03/02 09:07:03;;;;;;;0.98;0.63;;;8.80;99.90;;;;;;8453634;28;20105;-75
2024/03/02 09:11:06;;;;;;;2.45;0.77;;;8.90;99.90;;;;;;8455544;28;20478;-75
2024/03/02 09:15:08;;;;;;;0.98;0.60;;;9.00;99.90;;;;;;8466716;27;20059;-75
2024/03/02 09:19:10;;;;;;;3.55;0.88;;;9.20;99.90;;;;;;8455244;28;20095;-75
2024/03/02 09:23:12;;;;;;;2.42;0.85;;;9.30;99.90;;;;;;8455073;28;20059;-76
2024/03/02 09:27:14;;;;;;;3.58;0.88;;;9.30;99.90;;;;;;8457958;28;20105;-75
2024/03/02 09:31:16;;;;;;;3.33;0.90;;;9.40;99.90;;;;;;8456910;27;20134;-75
2024/03/02 09:35:18;;;;;;;3.13;0.82;;;9.50;99.90;;;;;;8457140;27;20104;-75
2024/03/02 09:39:20;;;;;;;2.38;0.70;;;9.50;99.90;;;;;;8465028;27;20054;-75
2024/03/02 09:43:23;;;;;;;4.57;1.10;;;9.60;99.90;;;;;;8448591;28;20154;-75
2024/03/02 09:47:25;;;;;;;6.32;1.13;;;9.70;99.90;;;;;;8459054;28;20055;-75
2024/03/02 09:51:27;;;;;;;3.17;0.90;;;9.80;99.90;;;;;;8454143;27;20051;-75
2024/03/02 09:55:29;;;;;;;2.10;0.80;;;10.00;99.90;;;;;;8460162;27;21307;-75
2024/03/02 09:59:31;;;;;;;3.38;0.90;;;10.20;99.90;;;;;;8458368;27;20088;-75
2024/03/02 10:03:33;;;;;;;3.47;0.90;;;10.40;99.90;;;;;;8460178;27;20106;-75
2024/03/02 10:07:35;;;;;;;3.58;1.25;;;10.60;99.90;;;;;;8442903;27;20677;-75
2024/03/02 10:11:38;;;;;;;4.75;0.90;;;10.90;99.90;;;;;;8436109;27;20082;-75
2024/03/02 10:15:41;;;;;;;3.55;0.90;;;11.10;99.90;;;;;;8435210;27;20454;-75
2024/03/02 10:19:44;;;;;;;3.20;0.60;;;11.30;99.90;;;;;;8442385;27;20067;-76
2024/03/02 10:23:45;;;;;;;2.53;0.80;;;11.50;99.90;;;;;;8453037;28;20058;-75
2024/03/02 10:27:50;;;;;;;3.97;1.10;;;11.70;99.90;;;;;;8453648;27;20402;-76
2024/03/02 10:31:52;;;;;;;3.53;0.82;;;11.80;99.90;;;;;;8466472;27;20050;-75
2024/03/02 10:35:54;;;;;;;4.82;0.93;;;11.90;99.90;;;;;;8439043;27;20048;-75
2024/03/02 10:39:56;;;;;;;3.80;1.10;;;12.20;99.90;;;;;;8424291;27;20482;-75
2024/03/02 10:43:59;;;;;;;5.32;0.93;;;12.60;99.90;;;;;;8434214;27;20066;-75
2024/03/02 10:48:02;;;;;;;2.50;0.80;;;13.00;99.90;;;;;;8433155;27;20055;-75
2024/03/02 10:52:04;;;;;;;3.58;0.80;;;13.30;99.90;;;;;;8431052;27;20513;-75
2024/03/02 10:56:09;;;;;;;5.10;1.00;;;13.50;99.90;;;;;;8432970;27;20063;-75
2024/03/02 11:00:15;;;;;;;4.43;0.80;;;13.80;99.90;;;;;;8452675;27;20087;-76
2024/03/02 11:09:59;;;;;;;2.70;0.80;;;14.10;99.90;;;;;;8448167;27;20413;-75
2024/03/02 11:14:08;;;;;;;1.75;0.70;;;14.40;99.90;;;;;;8454972;28;20044;-76
2024/03/02 11:18:11;;;;;;;2.90;0.70;;;14.80;99.90;;;;;;8446839;28;20457;-75
2024/03/02 11:27:48;;;;;;;2.00;0.80;;;15.20;99.90;;;;;;8445450;28;20385;-75
2024/03/02 11:32:00;;;;;;;1.70;0.80;;;15.00;99.90;;;;;;8455860;28;20051;-76
2024/03/02 11:36:03;;;;;;;2.72;0.90;;;15.30;99.90;;;;;;8448178;28;20437;-75
2024/03/02 11:40:36;;;;;;;5.25;0.90;;;15.50;99.90;;;;;;8447144;28;20040;-76
2024/03/02 11:44:38;;;;;;;2.95;0.93;;;15.90;99.90;;;;;;8472853;27;20079;-76
2024/03/02 11:48:40;;;;;;;2.15;0.75;;;16.10;99.90;;;;;;8450253;28;20494;-76
2024/03/02 11:58:04;;;;;;;4.45;0.85;;;16.20;99.90;;;;;;8448140;28;20128;-76
2024/03/02 12:02:06;;;;;;;2.72;0.90;;;16.40;99.90;;;;;;8452043;28;20097;-76
2024/03/02 12:06:09;;;;;;;6.45;1.58;;;16.30;99.90;;;;;;8447403;28;20153;-76
2024/03/02 12:20:58;;;;;;;2.60;1.02;;;17.10;99.90;;;;;;8436145;28;20390;-76
2024/03/02 12:25:01;;;;;;;3.97;0.90;;;17.80;99.90;;;;;;8439434;28;20048;-76
2024/03/02 12:29:03;;;;;;;4.53;1.00;;;17.90;99.90;;;;;;8427948;28;20070;-76
2024/03/02 12:33:05;;;;;;;2.28;0.85;;;17.90;99.90;;;;;;8425199;28;20059;-76
2024/03/02 12:37:07;;;;;;;3.00;0.82;;;18.20;99.90;;;;;;8428479;28;20067;-76
2024/03/02 12:41:08;;;;;;;2.22;0.85;;;18.00;99.90;;;;;;8437981;28;20040;-76
2024/03/02 12:45:11;;;;;;;3.88;1.08;;;17.90;99.90;;;;;;8435245;28;20208;-76
2024/03/02 12:49:18;;;;;;;2.20;0.80;;;18.00;99.90;;;;;;8443864;28;20040;-76
2024/03/02 12:53:21;;;;;;;2.80;0.80;;;18.10;99.90;;;;;;8439624;28;20104;-76
2024/03/02 12:57:27;;;;;;;3.42;0.90;;;17.60;99.90;;;;;;8434302;28;20040;-76
2024/03/02 13:01:28;;;;;;;3.95;1.00;;;17.40;99.90;;;;;;8432108;27;20044;-76
2024/03/02 13:05:31;;;;;;;3.45;0.95;;;17.60;99.90;;;;;;8437530;27;20148;-76
2024/03/02 13:09:34;;;;;;;2.75;0.90;;;17.40;99.90;;;;;;8443425;28;20047;-75
2024/03/02 13:14:13;;;;;;;4.45;1.05;;;17.10;99.90;;;;;;8444308;28;20044;-75
2024/03/02 13:18:18;;;;;;;2.90;0.90;;;16.70;99.90;;;;;;8441441;27;20051;-76
2024/03/02 13:22:21;;;;;;;3.25;0.93;;;16.30;99.90;;;;;;8438147;28;20075;-75
2024/03/02 13:26:23;;;;;;;3.22;0.80;;;16.30;99.90;;;;;;8430910;28;20048;-76
2024/03/02 13:30:43;;;;;;;2.45;0.70;;;16.40;99.90;;;;;;8431206;28;20051;-75
2024/03/02 13:34:45;;;;;;;2.03;0.80;;;16.40;99.90;;;;;;8430252;27;20394;-76
2024/03/02 13:38:47;;;;;;;4.25;1.00;;;16.30;99.90;;;;;;8429077;27;20066;-75
2024/03/02 13:42:50;;;;;;;3.85;1.10;;;16.00;99.90;;;;;;8428430;27;20078;-75
2024/03/02 13:46:52;;;;;;;2.58;0.88;;;15.90;99.90;;;;;;8432603;27;20414;-76
2024/03/02 13:50:54;;;;;;;2.45;0.80;;;16.00;99.90;;;;;;8429784;27;20040;-76
2024/03/02 13:54:56;;;;;;;2.97;0.90;;;16.00;99.90;;;;;;8438838;27;20442;-76
2024/03/02 13:58:58;;;;;;;2.97;0.90;;;16.10;99.90;;;;;;8431996;27;20433;-76
2024/03/02 14:03:00;;;;;;;2.83;0.88;;;16.20;99.90;;;;;;8434481;28;20055;-76
2024/03/02 14:07:02;;;;;;;3.47;1.00;;;16.20;99.90;;;;;;8424104;27;20071;-76
2024/03/02 14:11:04;;;;;;;3.70;1.10;;;16.10;99.90;;;;;;8430484;28;20043;-76
2024/03/02 14:15:07;;;;;;;4.10;1.13;;;15.90;99.90;;;;;;8433043;27;20078;-76
2024/03/02 14:19:09;;;;;;;4.10;1.48;;;15.60;99.90;;;;;;8433490;28;20046;-75
2024/03/02 14:23:11;;;;;;;4.78;1.20;;;15.40;99.90;;;;;;8441775;28;20547;-76
2024/03/02 14:27:13;;;;;;;2.50;1.00;;;15.20;99.90;;;;;;8434999;27;20047;-76
2024/03/02 14:31:33;;;;;;;3.72;1.20;;;15.20;99.90;;;;;;8425672;27;20044;-75
2024/03/02 14:35:35;;;;;;;3.28;1.00;;;15.30;99.90;;;;;;8429352;28;20044;-76
2024/03/02 14:39:37;;;;;;;2.38;0.85;;;15.40;99.90;;;;;;8430822;28;20047;-76
2024/03/02 14:43:39;;;;;;;4.18;1.00;;;15.80;99.90;;;;;;8431280;28;20122;-76
2024/03/02 14:47:41;;;;;;;2.55;1.10;;;16.60;99.90;;;;;;8431175;28;20047;-76
2024/03/02 14:51:44;;;;;;;5.20;1.10;;;17.40;99.90;;;;;;8429464;28;20478;-76
2024/03/02 14:55:46;;;;;;;1.77;0.80;;;18.20;99.90;;;;;;8462182;27;20460;-76
2024/03/02 14:59:47;;;;;;;2.58;0.90;;;18.20;99.90;;;;;;8429570;27;20043;-76
2024/03/02 15:03:50;;;;;;;2.92;0.90;;;18.20;99.90;;;;;;8429018;27;20056;-76
2024/03/02 15:07:52;;;;;;;2.97;0.90;;;18.70;99.90;;;;;;8429095;28;20434;-76
2024/03/02 15:11:54;;;;;;;3.33;1.00;;;19.30;99.90;;;;;;8435724;27;20051;-76
2024/03/02 15:15:56;;;;;;;2.58;0.90;;;19.40;99.90;;;;;;8443659;27;20036;-75
2024/03/02 15:19:58;;;;;;;4.13;1.10;;;19.40;99.90;;;;;;8437460;27;20039;-76
2024/03/02 15:24:00;;;;;;;2.70;0.95;;;19.10;99.90;;;;;;8422599;27;20043;-75
2024/03/02 15:28:02;;;;;;;4.68;1.20;;;18.70;99.90;;;;;;8437660;28;20051;-75
2024/03/02 15:32:07;;;;;;;3.72;1.13;;;18.40;99.90;;;;;;8427242;28;20051;-75
2024/03/02 15:36:09;;;;;;;3.67;1.10;;;18.40;99.90;;;;;;8432375;27;20092;-75
2024/03/02 15:40:11;;;;;;;3.10;0.93;;;18.10;99.90;;;;;;8427807;28;20442;-75
2024/03/02 15:44:13;;;;;;;3.30;1.15;;;17.50;99.90;;;;;;8427368;27;20047;-75
2024/03/02 15:48:14;;;;;;;2.25;0.93;;;16.90;99.90;;;;;;8424327;28;20260;-75
2024/03/02 15:52:18;;;;;;;2.85;0.90;;;16.40;99.90;;;;;;8440744;28;20052;-75
2024/03/02 15:56:20;;;;;;;1.58;0.73;;;16.10;99.90;;;;;;8435270;27;20510;-75
2024/03/02 16:00:22;;;;;;;4.55;1.00;;;15.90;99.90;;;;;;8437795;28;20472;-75
2024/03/02 16:04:24;;;;;;;2.47;0.80;;;15.70;99.90;;;;;;8428985;28;20044;-75
2024/03/02 16:08:26;;;;;;;2.63;0.82;;;16.10;99.90;;;;;;8436553;28;20490;-75
2024/03/02 16:12:28;;;;;;;1.63;0.82;;;16.00;99.90;;;;;;8434223;28;20465;-75
2024/03/02 16:16:29;;;;;;;2.35;1.00;;;15.80;99.90;;;;;;8431320;28;20048;-75
2024/03/02 16:20:31;;;;;;;3.10;0.90;;;15.50;99.90;;;;;;8428273;28;20047;-75
2024/03/02 16:24:33;;;;;;;3.30;1.10;;;15.30;99.90;;;;;;8428263;28;20047;-75
2024/03/02 16:28:35;;;;;;;4.40;1.05;;;15.10;99.90;;;;;;8427633;27;20461;-76
2024/03/02 16:32:37;;;;;;;3.53;1.20;;;15.00;99.90;;;;;;8427405;28;20093;-75
2024/03/02 16:36:39;;;;;;;3.72;1.00;;;14.90;99.90;;;;;;8423716;28;20044;-75
2024/03/02 16:40:42;;;;;;;2.67;0.82;;;14.80;99.90;;;;;;8430097;27;20054;-75
2024/03/02 16:44:45;;;;;;;4.53;0.93;;;14.70;99.90;;;;;;8432121;28;20102;-74
2024/03/02 16:48:47;;;;;;;4.28;1.10;;;14.60;99.90;;;;;;8429525;28;20051;-75
2024/03/02 16:52:49;;;;;;;2.60;1.00;;;14.60;99.90;;;;;;8429584;28;20551;-75
2024/03/02 16:56:50;;;;;;;4.30;1.10;;;14.50;99.90;;;;;;8427201;28;20070;-75
2024/03/02 17:00:53;;;;;;;4.60;1.20;;;14.40;99.90;;;;;;8427937;28;20047;-75
2024/03/02 17:04:54;;;;;;;3.05;1.08;;;14.30;99.90;;;;;;8427858;28;20052;-75
2024/03/02 17:08:56;;;;;;;4.05;1.30;;;14.20;99.90;;;;;;8425283;28;20084;-75
2024/03/02 17:12:59;;;;;;;3.50;1.30;;;14.10;99.90;;;;;;8425031;28;20118;-75
2024/03/02 17:22:25;;;;;;;2.92;1.25;;;14.00;99.90;;;;;;8425178;28;20216;-74
2024/03/02 17:26:27;;;;;;;3.00;1.10;;;13.90;99.90;;;;;;8428875;28;20055;-74
2024/03/02 17:30:28;;;;;;;3.72;1.20;;;13.80;99.90;;;;;;8429422;28;20055;-75
2024/03/02 17:34:30;;;;;;;3.13;1.17;;;13.70;99.90;;;;;;8429271;28;20051;-75
2024/03/02 17:38:32;;;;;;;3.05;1.10;;;13.60;99.90;;;;;;8424771;28;20056;-75
2024/03/02 17:42:34;;;;;;;2.10;1.00;;;13.60;99.90;;;;;;8425596;28;20556;-75
2024/03/02 17:46:36;;;;;;;2.85;1.25;;;13.60;99.90;;;;;;8430314;28;20502;-75
2024/03/02 17:50:38;;;;;;;2.40;1.15;;;13.60;99.90;;;;;;8447433;27;20063;-74
2024/03/02 17:54:40;;;;;;;3.90;1.20;;;13.60;99.90;;;;;;8439586;27;20455;-74
2024/03/02 17:58:42;;;;;;;3.00;1.13;;;13.60;99.90;;;;;;8443560;27;20048;-74
2024/03/02 18:02:44;;;;;;;5.93;1.58;;;13.60;99.90;;;;;;8441538;27;20173;-74
2024/03/02 18:06:45;;;;;;;3.22;1.30;;;13.60;99.90;;;;;;8442588;28;20047;-75
2024/03/02 18:10:47;;;;;;;2.78;1.20;;;13.50;99.90;;;;;;8433989;28;20061;-75
2024/03/02 18:14:49;;;;;;;3.42;1.30;;;13.50;99.90;;;;;;8430899;28;20388;-75
2024/03/02 18:18:51;;;;;;;4.38;1.30;;;13.50;99.90;;;;;;8440720;28;20047;-74
2024/03/02 18:22:56;;;;;;;5.00;1.70;;;13.50;99.90;;;;;;8428243;28;20075;-74
2024/03/02 18:26:59;;;;;;;4.03;1.33;;;13.40;99.90;;;;;;8433033;28;20074;-74
2024/03/02 18:31:01;;;;;;;2.63;1.25;;;13.40;99.90;;;;;;8433052;28;20043;-74
2024/03/02 18:35:04;;;;;;;3.53;1.58;;;13.40;99.90;;;;;;8424242;28;20104;-74
2024/03/02 18:39:06;;;;;;;3.70;1.40;;;13.30;99.90;;;;;;8429280;28;20086;-75
2024/03/02 18:43:08;;;;;;;4.68;1.48;;;13.30;99.90;;;;;;8426203;28;20415;-74
2024/03/02 18:47:11;;;;;;;3.55;1.50;;;13.30;99.90;;;;;;8425744;28;20106;-74
2024/03/02 18:51:13;;;;;;;3.10;1.45;;;13.30;99.90;;;;;;8425738;28;20453;-74
2024/03/02 18:55:15;;;;;;;3.80;1.40;;;13.20;99.90;;;;;;8429873;28;20055;-74
2024/03/02 18:59:16;;;;;;;3.45;1.55;;;13.20;99.90;;;;;;8427495;28;20047;-74
2024/03/02 19:03:18;;;;;;;4.05;1.58;;;13.20;99.90;;;;;;8427832;28;20054;-74
2024/03/02 19:07:20;;;;;;;2.67;1.30;;;13.10;99.90;;;;;;8428579;28;20055;-75
2024/03/02 19:11:22;;;;;;;4.35;1.80;;;13.10;99.90;;;;;;8428092;28;20055;-74
2024/03/02 19:15:24;;;;;;;3.30;1.52;;;13.10;99.90;;;;;;8435829;28;20051;-74
2024/03/02 19:19:26;;;;;;;3.00;1.40;;;13.10;99.90;;;;;;8442922;28;20491;-74
2024/03/02 19:23:29;;;;;;;5.03;1.67;;;13.10;99.90;;;;;;8443121;28;20097;-74
2024/03/02 19:27:40;;;;;;;4.18;1.60;;;13.00;99.90;;;;;;8438487;28;20079;-74
2024/03/02 19:31:42;;;;;;;2.83;1.33;;;13.00;99.90;;;;;;8430817;28;20112;-75
2024/03/02 19:35:44;;;;;;;3.72;1.70;;;13.00;99.90;;;;;;8431340;28;20462;-75
2024/03/02 19:39:46;;;;;;;5.38;1.92;;;12.90;99.90;;;;;;8429943;28;20113;-75
2024/03/02 19:43:47;;;;;;;4.72;1.60;;;12.80;99.90;;;;;;8429966;28;20040;-75
2024/03/02 19:47:49;;;;;;;4.18;2.08;;;12.80;99.90;;;;;;8433646;28;20082;-74
2024/03/02 19:51:52;;;;;;;4.65;1.70;;;12.70;99.90;;;;;;8427841;28;20141;-74
2024/03/02 19:55:54;;;;;;;3.63;1.70;;;12.60;99.90;;;;;;8435111;28;20036;-74
2024/03/02 19:59:56;;;;;;;5.13;2.28;;;12.50;99.90;;;;;;8429791;28;20040;-74
2024/03/02 20:03:57;;;;;;;4.65;2.00;;;12.40;99.90;;;;;;8428363;28;20051;-74
2024/03/02 20:07:59;;;;;;;4.20;1.90;;;12.40;99.90;;;;;;8431049;28;20051;-75
2024/03/02 20:12:03;;;;;;;4.72;1.98;;;12.30;99.90;;;;;;8434191;28;20059;-74
2024/03/02 20:16:08;;;;;;;4.82;1.80;;;12.20;99.90;;;;;;8428242;28;20368;-75
2024/03/02 20:20:13;;;;;;;5.28;2.17;;;12.20;99.90;;;;;;8428794;28;20047;-74
2024/03/02 20:24:15;;;;;;;4.72;2.03;;;12.10;99.90;;;;;;8431925;28;20040;-75
2024/03/02 20:28:17;;;;;;;4.35;2.30;;;12.10;99.90;;;;;;8432366;28;20047;-75
2024/03/02 20:32:19;;;;;;;5.28;2.40;;;12.00;99.90;;;;;;8437761;27;20055;-75
2024/03/02 20:36:21;;;;;;;3.70;2.05;;;12.00;99.90;;;;;;8428622;28;20128;-74
2024/03/02 20:40:23;;;;;;;4.57;2.30;;;12.00;99.90;;;;;;8427634;27;20043;-75
2024/03/02 20:44:25;;;;;;;7.15;2.40;;;12.00;99.90;;;;;;8431911;28;20073;-75
2024/03/02 20:48:28;;;;;;;3.92;2.05;;;11.90;99.90;;;;;;8431455;28;20066;-75
2024/03/02 20:52:31;;;;;;;4.60;2.13;;;11.90;99.90;;;;;;8430866;28;20040;-75
2024/03/02 20:56:36;;;;;;;4.40;2.40;;;11.90;99.90;;;;;;8432837;28;20040;-75
2024/03/02 21:00:38;;;;;;;5.43;2.47;;;11.80;99.90;;;;;;8429111;28;24995;-74
2024/03/02 21:04:41;;;;;;;5.05;2.50;;;11.80;99.90;;;;;;8430749;28;20484;-75
2024/03/02 21:08:43;;;;;;;4.82;2.30;;;11.80;99.90;;;;;;8431577;28;20044;-75
2024/03/02 21:12:45;;;;;;;5.90;2.35;;;11.80;99.90;;;;;;8429946;28;20427;-75
2024/03/02 21:16:50;;;;;;;6.70;2.60;;;11.70;99.90;;;;;;8427281;28;20047;-74
2024/03/02 21:20:52;;;;;;;5.20;2.47;;;11.70;99.90;;;;;;8439057;28;20094;-75
2024/03/02 21:25:00;;;;;;;4.90;2.78;;;11.70;99.90;;;;;;8436892;28;20048;-74
2024/03/02 21:29:03;;;;;;;4.82;2.47;;;11.60;99.90;;;;;;8431643;28;20657;-74
2024/03/02 21:33:05;;;;;;;4.93;2.47;;;11.60;99.90;;;;;;8433402;28;20097;-75
2024/03/02 21:37:08;;;;;;;5.35;2.50;;;11.60;99.90;;;;;;8431694;28;20086;-74
2024/03/02 21:41:10;;;;;;;4.47;2.35;;;11.50;99.90;;;;;;8439487;28;20039;-74
2024/03/02 21:45:12;;;;;;;4.43;2.30;;;11.50;99.90;;;;;;8439496;27;20054;-74
2024/03/02 21:49:14;;;;;;;5.35;2.80;;;11.60;99.90;;;;;;8434743;28;20063;-75
2024/03/02 21:53:16;;;;;;;4.90;2.35;;;11.60;99.90;;;;;;8434129;28;20040;-74
2024/03/02 21:57:19;;;;;;;4.57;2.17;;;11.60;99.90;;;;;;8434404;28;20104;-75
2024/03/02 22:01:21;;;;;;;5.32;2.20;;;11.60;99.90;;;;;;8445096;28;20052;-74
2024/03/02 22:05:23;;;;;;;4.38;2.20;;;11.60;99.90;;;;;;8461132;27;20082;-74
2024/03/02 22:09:25;;;;;;;4.15;1.90;;;11.60;99.90;;;;;;8459325;28;20100;-74
2024/03/02 22:13:27;;;;;;;6.50;2.55;;;11.60;99.90;;;;;;8462417;27;20057;-74